Time;durP1;ratioP1;P1;durP2;ratioP2;P2;SDS_P1;SDS_P2;PMS_P1;PMS_P2;Temp;Humidity;BMP_temperature;BMP_pressure;BME280_temperature;BME280_humidity;BME280_pressure;Samples;Min_cycle;Max_cycle;Signal;HPM_P1;HPM_P2
2022/01/09 00:01:29;;;;;;;5.33;4.13;;;3.60;99.90;;;;;;5033809;28;20367;-45
2022/01/09 00:03:56;;;;;;;5.10;2.70;;;3.60;99.90;;;;;;5013943;28;20209;-45
2022/01/09 00:06:23;;;;;;;3.37;2.60;;;3.60;99.90;;;;;;5024292;28;22180;-45
2022/01/09 00:08:50;;;;;;;3.13;2.33;;;3.60;99.90;;;;;;5029612;28;20224;-45
2022/01/09 00:11:24;;;;;;;3.47;2.67;;;3.60;99.90;;;;;;5022462;28;20323;-44
2022/01/09 00:13:51;;;;;;;2.80;2.50;;;3.60;99.90;;;;;;5027182;28;20231;-45
2022/01/09 00:16:20;;;;;;;3.17;2.37;;;3.60;99.90;;;;;;5036102;28;20336;-44
2022/01/09 00:18:48;;;;;;;2.93;2.40;;;3.60;99.90;;;;;;5029380;28;20210;-44
2022/01/09 00:21:16;;;;;;;4.13;2.60;;;3.60;99.90;;;;;;5048743;28;20315;-45
2022/01/09 00:23:42;;;;;;;2.33;2.13;;;3.50;99.90;;;;;;5035390;28;20218;-45
2022/01/09 00:26:10;;;;;;;2.93;2.50;;;3.60;99.90;;;;;;5011101;28;20425;-50
2022/01/09 00:28:36;;;;;;;2.90;2.47;;;3.60;99.90;;;;;;5039422;28;20205;-50
2022/01/09 00:31:04;;;;;;;3.20;2.13;;;3.60;99.90;;;;;;5046922;28;20212;-49
2022/01/09 00:33:30;;;;;;;2.93;2.63;;;3.60;99.90;;;;;;5033617;28;20223;-50
2022/01/09 00:35:59;;;;;;;2.60;2.33;;;3.60;99.90;;;;;;5035861;28;20219;-50
2022/01/09 00:38:26;;;;;;;2.50;2.30;;;3.60;99.90;;;;;;5035418;28;20208;-50
2022/01/09 00:40:53;;;;;;;2.80;2.50;;;3.60;99.90;;;;;;5040176;28;20437;-49
2022/01/09 00:43:20;;;;;;;3.30;2.47;;;3.60;99.90;;;;;;5025571;28;20233;-50
2022/01/09 00:45:47;;;;;;;4.27;2.83;;;3.60;99.90;;;;;;5047797;28;20301;-49
2022/01/09 00:48:13;;;;;;;2.50;2.30;;;3.60;99.90;;;;;;5017536;28;20585;-50
2022/01/09 00:50:41;;;;;;;2.43;2.20;;;3.60;99.90;;;;;;5048242;28;20209;-49
2022/01/09 00:53:09;;;;;;;3.70;2.80;;;3.60;99.90;;;;;;5033915;28;20231;-50
2022/01/09 00:55:36;;;;;;;2.80;2.50;;;3.60;99.90;;;;;;5029641;28;20597;-50
2022/01/09 00:58:03;;;;;;;2.90;2.60;;;3.60;99.90;;;;;;5037366;28;20658;-50
2022/01/09 01:00:30;;;;;;;2.70;2.47;;;3.60;99.90;;;;;;5044097;28;20205;-50
2022/01/09 01:02:57;;;;;;;3.43;2.67;;;3.60;99.90;;;;;;5049231;28;20221;-50
2022/01/09 01:05:24;;;;;;;2.80;2.47;;;3.60;99.90;;;;;;5031076;28;20601;-50
2022/01/09 01:07:51;;;;;;;3.13;2.53;;;3.70;99.90;;;;;;5052316;28;20218;-48
2022/01/09 01:10:19;;;;;;;3.20;2.77;;;3.70;99.90;;;;;;5033228;28;20227;-50
2022/01/09 01:12:46;;;;;;;2.33;2.10;;;3.70;99.90;;;;;;5035754;28;20225;-49
2022/01/09 01:15:14;;;;;;;5.40;2.50;;;3.70;99.90;;;;;;5015715;28;20240;-50
2022/01/09 01:17:41;;;;;;;5.00;2.50;;;3.70;99.90;;;;;;5045724;28;20693;-49
2022/01/09 01:20:09;;;;;;;3.37;2.67;;;3.70;99.90;;;;;;5025916;28;20212;-50
2022/01/09 01:22:36;;;;;;;2.77;2.50;;;3.70;99.90;;;;;;5042399;28;20232;-50
2022/01/09 01:25:05;;;;;;;3.97;2.60;;;3.70;99.90;;;;;;5027963;28;20305;-50
2022/01/09 01:27:33;;;;;;;2.27;2.07;;;3.70;99.90;;;;;;5033720;28;20208;-50
2022/01/09 01:30:00;;;;;;;2.63;2.43;;;3.70;99.90;;;;;;5042419;28;20208;-50
2022/01/09 01:32:27;;;;;;;3.03;2.43;;;3.70;99.90;;;;;;5028103;28;20429;-43
2022/01/09 01:34:54;;;;;;;2.57;2.37;;;3.70;99.90;;;;;;5031175;28;20562;-43
2022/01/09 01:37:21;;;;;;;2.60;2.40;;;3.70;99.90;;;;;;5012609;28;20478;-43
2022/01/09 01:39:48;;;;;;;2.77;2.57;;;3.80;99.90;;;;;;5029530;28;20205;-43
2022/01/09 01:42:15;;;;;;;3.00;2.70;;;3.70;99.90;;;;;;5018082;28;20329;-43
2022/01/09 01:44:45;;;;;;;3.87;2.63;;;3.70;99.90;;;;;;5037032;28;20188;-43
2022/01/09 01:47:13;;;;;;;2.60;2.40;;;3.80;99.90;;;;;;5020696;28;20208;-47
2022/01/09 01:49:41;;;;;;;2.70;2.50;;;3.80;99.90;;;;;;5043848;28;20215;-47
2022/01/09 01:52:09;;;;;;;3.93;2.50;;;3.80;99.90;;;;;;5009875;28;20248;-47
2022/01/09 01:54:36;;;;;;;3.53;2.70;;;3.70;99.90;;;;;;5046853;28;20230;-47
2022/01/09 01:57:04;;;;;;;4.37;2.43;;;3.80;99.90;;;;;;5023014;28;20205;-47
2022/01/09 01:59:31;;;;;;;2.70;2.50;;;3.70;99.90;;;;;;5050695;28;20928;-46
2022/01/09 02:01:59;;;;;;;3.67;2.63;;;3.80;99.90;;;;;;5016878;28;20225;-47
2022/01/09 02:04:26;;;;;;;3.63;2.57;;;3.80;99.90;;;;;;5047394;28;20289;-47
2022/01/09 02:06:54;;;;;;;3.27;2.67;;;3.70;99.90;;;;;;5022281;28;20217;-47
2022/01/09 02:09:21;;;;;;;3.67;2.83;;;3.70;99.90;;;;;;5049957;28;20401;-47
2022/01/09 02:11:48;;;;;;;2.50;2.30;;;3.80;99.90;;;;;;5019472;28;20225;-47
2022/01/09 02:14:15;;;;;;;2.47;2.27;;;3.70;99.90;;;;;;5034906;28;20220;-46
2022/01/09 02:16:42;;;;;;;2.73;2.50;;;3.70;99.90;;;;;;5027688;28;20338;-47
2022/01/09 02:19:13;;;;;;;3.57;2.37;;;3.70;99.90;;;;;;5028267;28;20209;-47
2022/01/09 02:21:44;;;;;;;3.40;2.40;;;3.70;99.90;;;;;;5023007;28;20248;-47
2022/01/09 02:24:11;;;;;;;2.63;2.40;;;3.70;99.90;;;;;;5034256;28;20219;-47
2022/01/09 02:26:38;;;;;;;2.93;2.50;;;3.70;99.90;;;;;;5037471;28;20223;-47
2022/01/09 02:29:05;;;;;;;2.57;2.37;;;3.70;99.90;;;;;;5027723;28;21284;-49
2022/01/09 02:31:32;;;;;;;3.00;2.70;;;3.70;99.90;;;;;;5027856;28;21140;-50
2022/01/09 02:33:59;;;;;;;3.33;2.40;;;3.70;99.90;;;;;;5043757;28;20204;-50
2022/01/09 02:36:26;;;;;;;3.77;2.70;;;3.70;99.90;;;;;;5034756;28;20235;-50
2022/01/09 02:38:54;;;;;;;4.57;2.87;;;3.70;99.90;;;;;;5039313;28;20706;-50
2022/01/09 02:41:21;;;;;;;4.73;2.80;;;3.70;99.90;;;;;;5027929;28;20239;-49
2022/01/09 02:43:48;;;;;;;3.00;2.70;;;3.70;99.90;;;;;;5023306;28;20693;-49
2022/01/09 02:46:27;;;;;;;2.97;2.67;;;3.70;99.90;;;;;;5048006;28;20201;-50
2022/01/09 02:48:54;;;;;;;2.73;2.53;;;3.70;99.90;;;;;;5019417;28;20208;-50
2022/01/09 02:51:21;;;;;;;3.47;2.30;;;3.60;99.90;;;;;;5033378;28;20224;-48
2022/01/09 02:53:49;;;;;;;2.53;2.33;;;3.60;99.90;;;;;;5008084;28;20245;-49
2022/01/09 02:56:18;;;;;;;2.90;2.70;;;3.60;99.90;;;;;;5025073;28;20228;-50
2022/01/09 02:58:45;;;;;;;3.07;2.77;;;3.70;99.90;;;;;;5032887;28;20219;-50
2022/01/09 03:01:13;;;;;;;3.17;2.53;;;3.70;99.90;;;;;;5046460;28;20606;-50
2022/01/09 03:03:41;;;;;;;2.60;2.40;;;3.70;99.90;;;;;;5022336;28;20216;-49
2022/01/09 03:06:09;;;;;;;2.50;2.30;;;3.70;99.90;;;;;;5049488;28;20212;-47
2022/01/09 03:08:37;;;;;;;2.57;2.27;;;3.70;99.90;;;;;;5033381;28;20709;-47
2022/01/09 03:11:04;;;;;;;2.30;2.10;;;3.60;99.90;;;;;;5043405;28;20215;-47
2022/01/09 03:13:33;;;;;;;2.50;2.30;;;3.60;99.90;;;;;;5023798;28;20200;-47
2022/01/09 03:16:00;;;;;;;2.60;2.40;;;3.60;99.90;;;;;;5040667;28;20245;-47
2022/01/09 03:18:27;;;;;;;2.90;2.30;;;3.70;99.90;;;;;;5023501;28;20205;-47
2022/01/09 03:20:54;;;;;;;3.53;2.50;;;3.60;99.90;;;;;;5044007;28;20279;-47
2022/01/09 03:23:21;;;;;;;2.57;2.30;;;3.60;99.90;;;;;;5039277;28;20209;-46
2022/01/09 03:25:47;;;;;;;4.60;2.37;;;3.60;99.90;;;;;;5025001;28;20426;-47
2022/01/09 03:29:01;;;;;;;2.97;2.67;;;3.60;99.90;;;;;;5036495;28;20217;-47
2022/01/09 03:31:29;;;;;;;2.67;2.47;;;3.60;99.90;;;;;;5009713;28;20232;-43
2022/01/09 03:33:56;;;;;;;2.80;2.50;;;3.50;99.90;;;;;;5028917;28;20208;-43
2022/01/09 03:36:23;;;;;;;2.70;2.50;;;3.60;99.90;;;;;;5026992;28;23220;-43
2022/01/09 03:38:50;;;;;;;3.00;2.50;;;3.60;99.90;;;;;;5040290;28;20300;-43
2022/01/09 03:41:17;;;;;;;2.70;2.50;;;3.60;99.90;;;;;;5029536;28;20603;-43
2022/01/09 03:43:43;;;;;;;2.67;2.33;;;3.60;99.90;;;;;;5036579;28;20203;-43
2022/01/09 03:46:10;;;;;;;2.70;2.30;;;3.60;99.90;;;;;;5020307;28;20629;-43
2022/01/09 03:48:38;;;;;;;2.60;2.40;;;3.50;99.90;;;;;;5029070;28;20374;-43
2022/01/09 03:51:05;;;;;;;3.57;2.70;;;3.50;99.90;;;;;;5046280;28;20209;-43
2022/01/09 03:53:32;;;;;;;3.27;2.73;;;3.50;99.90;;;;;;5026533;28;20719;-44
2022/01/09 03:55:59;;;;;;;2.63;2.43;;;3.50;99.90;;;;;;5048955;28;20316;-43
2022/01/09 03:58:27;;;;;;;3.10;2.57;;;3.50;99.90;;;;;;5017018;28;20208;-43
2022/01/09 04:00:53;;;;;;;2.83;2.60;;;3.50;99.90;;;;;;5040416;28;20200;-43
2022/01/09 04:03:20;;;;;;;2.73;2.53;;;3.50;99.90;;;;;;5022238;28;20209;-43
2022/01/09 04:05:49;;;;;;;2.97;2.60;;;3.50;99.90;;;;;;5028174;28;20212;-43
2022/01/09 04:08:17;;;;;;;3.30;2.50;;;3.50;99.90;;;;;;5051639;28;20231;-43
2022/01/09 04:10:44;;;;;;;2.57;2.37;;;3.50;99.90;;;;;;5047891;28;20276;-45
2022/01/09 04:13:15;;;;;;;2.90;2.60;;;3.50;99.90;;;;;;5025120;28;20220;-45
2022/01/09 04:15:46;;;;;;;2.77;2.50;;;3.40;99.90;;;;;;5040955;28;20224;-45
2022/01/09 04:18:13;;;;;;;2.97;2.70;;;3.50;99.90;;;;;;5022302;28;20398;-45
2022/01/09 04:20:41;;;;;;;2.40;2.20;;;3.50;99.90;;;;;;5030056;28;20240;-45
2022/01/09 04:23:09;;;;;;;3.13;2.33;;;3.50;99.90;;;;;;5034346;28;20563;-45
2022/01/09 04:25:36;;;;;;;2.97;2.57;;;3.50;99.90;;;;;;5047863;28;20213;-45
2022/01/09 04:28:03;;;;;;;2.90;2.40;;;3.40;99.90;;;;;;5029012;28;20343;-45
2022/01/09 04:30:30;;;;;;;3.10;2.43;;;3.40;99.90;;;;;;5035076;28;20220;-45
2022/01/09 04:32:57;;;;;;;3.37;2.70;;;3.50;99.90;;;;;;5031408;28;20325;-45
2022/01/09 04:35:23;;;;;;;5.37;2.70;;;3.50;99.90;;;;;;5021915;28;20229;-45
2022/01/09 04:37:52;;;;;;;2.50;2.30;;;3.50;99.90;;;;;;5042688;28;20538;-45
2022/01/09 04:40:21;;;;;;;2.30;2.07;;;3.40;99.90;;;;;;5040985;28;20231;-45
2022/01/09 04:42:52;;;;;;;2.50;2.30;;;3.40;99.90;;;;;;5030582;28;20213;-45
2022/01/09 04:45:20;;;;;;;2.17;2.03;;;3.40;99.90;;;;;;5021364;28;20201;-45
2022/01/09 04:47:49;;;;;;;2.30;2.10;;;3.40;99.90;;;;;;5040923;28;20213;-45
2022/01/09 04:50:21;;;;;;;2.40;2.20;;;3.40;99.90;;;;;;5029645;28;20205;-45
2022/01/09 04:52:51;;;;;;;2.87;2.57;;;3.40;99.90;;;;;;5052237;28;20320;-45
2022/01/09 04:55:20;;;;;;;2.83;2.33;;;3.40;99.90;;;;;;5044592;28;20221;-45
2022/01/09 04:57:47;;;;;;;2.07;1.87;;;3.40;99.90;;;;;;5027331;28;20599;-45
2022/01/09 05:00:14;;;;;;;2.50;2.30;;;3.30;99.90;;;;;;5017718;28;20712;-45
2022/01/09 05:02:41;;;;;;;2.60;2.23;;;3.40;99.90;;;;;;5038551;28;20231;-45
2022/01/09 05:05:09;;;;;;;3.27;2.00;;;3.30;99.90;;;;;;5019843;28;23192;-45
2022/01/09 05:07:36;;;;;;;2.30;2.10;;;3.30;99.90;;;;;;5030283;28;20213;-45
2022/01/09 05:10:03;;;;;;;2.07;1.97;;;3.40;99.90;;;;;;5036758;28;20768;-45
2022/01/09 05:12:32;;;;;;;2.63;2.10;;;3.30;99.90;;;;;;5049883;28;20477;-45
2022/01/09 05:14:58;;;;;;;2.27;2.07;;;3.40;99.90;;;;;;5027491;28;20209;-45
2022/01/09 05:17:25;;;;;;;2.93;2.30;;;3.30;99.90;;;;;;5038664;28;20224;-50
2022/01/09 05:19:57;;;;;;;2.40;2.20;;;3.30;99.90;;;;;;5029141;28;20683;-50
2022/01/09 05:22:24;;;;;;;4.90;2.43;;;3.40;99.90;;;;;;5009279;28;20229;-50
2022/01/09 05:24:51;;;;;;;2.20;2.03;;;3.40;99.90;;;;;;5040870;28;20201;-49
2022/01/09 05:27:18;;;;;;;2.60;2.40;;;3.40;99.90;;;;;;5047675;28;20222;-49
2022/01/09 05:29:46;;;;;;;2.20;2.00;;;3.30;99.90;;;;;;5032669;28;20208;-50
2022/01/09 05:32:13;;;;;;;2.60;2.40;;;3.30;99.90;;;;;;5037421;28;20545;-49
2022/01/09 05:34:40;;;;;;;2.13;1.93;;;3.40;99.90;;;;;;5027123;28;20219;-51
2022/01/09 05:37:07;;;;;;;2.37;2.17;;;3.30;99.90;;;;;;5030529;28;21383;-50
2022/01/09 05:39:34;;;;;;;2.60;2.40;;;3.40;99.90;;;;;;5049777;28;20287;-49
2022/01/09 05:42:04;;;;;;;2.40;2.20;;;3.30;99.90;;;;;;5026470;28;20410;-49
2022/01/09 05:44:31;;;;;;;2.43;2.23;;;3.40;99.90;;;;;;5041588;28;20202;-49
2022/01/09 05:47:00;;;;;;;4.40;2.37;;;3.20;99.90;;;;;;5027467;28;20983;-50
2022/01/09 05:49:27;;;;;;;2.93;2.50;;;3.20;99.90;;;;;;5040252;28;20208;-50
2022/01/09 05:51:54;;;;;;;3.23;2.87;;;3.20;99.90;;;;;;5004863;28;20233;-50
2022/01/09 05:54:21;;;;;;;2.73;2.53;;;3.20;99.90;;;;;;5049117;28;20208;-50
2022/01/09 05:56:51;;;;;;;2.60;2.40;;;3.20;99.90;;;;;;5040731;28;20240;-50
2022/01/09 05:59:18;;;;;;;2.80;2.50;;;3.20;99.90;;;;;;5047510;28;20265;-50
2022/01/09 06:01:45;;;;;;;2.60;2.40;;;3.20;99.90;;;;;;5015965;28;20237;-50
2022/01/09 06:04:13;;;;;;;2.63;2.20;;;3.20;99.90;;;;;;5038292;28;20201;-50
2022/01/09 06:06:40;;;;;;;3.10;2.80;;;3.20;99.90;;;;;;5032864;28;24070;-50
2022/01/09 06:09:08;;;;;;;2.60;2.40;;;3.10;99.90;;;;;;5026281;28;20306;-49
2022/01/09 06:11:35;;;;;;;2.50;2.30;;;3.10;99.90;;;;;;5029589;28;20337;-49
2022/01/09 06:14:02;;;;;;;2.50;2.30;;;3.10;99.90;;;;;;5035834;28;20235;-50
2022/01/09 06:16:29;;;;;;;3.17;2.70;;;3.00;99.90;;;;;;5025886;28;20224;-43
2022/01/09 06:18:56;;;;;;;3.07;2.77;;;3.00;99.90;;;;;;5031824;28;20247;-43
2022/01/09 06:21:26;;;;;;;3.27;2.97;;;3.00;99.90;;;;;;5006637;28;20726;-43
2022/01/09 06:23:53;;;;;;;3.37;3.07;;;3.00;99.90;;;;;;5032691;28;20261;-43
2022/01/09 06:26:20;;;;;;;3.60;3.30;;;3.00;99.90;;;;;;5040786;28;20392;-43
2022/01/09 06:28:46;;;;;;;4.10;3.70;;;3.00;99.90;;;;;;5045304;28;20238;-44
2022/01/09 06:31:14;;;;;;;3.60;3.30;;;3.00;99.90;;;;;;5016599;28;20240;-43
2022/01/09 06:33:41;;;;;;;3.50;3.20;;;3.00;99.90;;;;;;5029826;28;20219;-43
2022/01/09 06:36:08;;;;;;;3.60;3.30;;;3.00;99.90;;;;;;5051404;28;20227;-43
2022/01/09 06:38:37;;;;;;;3.20;2.90;;;2.90;99.90;;;;;;5017720;28;20788;-43
2022/01/09 06:41:04;;;;;;;3.63;3.30;;;2.90;99.90;;;;;;5031886;28;20747;-43
2022/01/09 06:43:31;;;;;;;3.87;3.43;;;3.10;99.90;;;;;;5042802;28;20629;-43
2022/01/09 06:45:58;;;;;;;3.73;3.43;;;3.00;99.90;;;;;;5048373;28;20193;-43
2022/01/09 06:48:25;;;;;;;3.43;3.13;;;3.00;99.90;;;;;;5022230;28;20357;-43
2022/01/09 06:50:51;;;;;;;4.30;3.60;;;3.00;99.90;;;;;;5028463;28;20215;-43
2022/01/09 06:53:18;;;;;;;3.93;3.43;;;3.00;99.90;;;;;;5024536;28;23158;-43
2022/01/09 06:55:47;;;;;;;4.37;3.50;;;3.00;99.90;;;;;;5032326;28;20572;-44
2022/01/09 06:58:14;;;;;;;4.77;4.27;;;3.00;99.90;;;;;;5032354;28;20207;-43
2022/01/09 07:00:41;;;;;;;4.77;4.27;;;3.10;99.90;;;;;;5025277;28;20205;-43
2022/01/09 07:03:08;;;;;;;5.23;4.33;;;3.00;99.90;;;;;;4979392;28;20334;-44
2022/01/09 07:05:35;;;;;;;4.60;4.20;;;3.00;99.90;;;;;;5047081;28;20205;-43
2022/01/09 07:08:02;;;;;;;4.90;4.40;;;3.10;99.90;;;;;;5015929;28;20212;-43
2022/01/09 07:10:29;;;;;;;4.70;4.30;;;3.10;99.90;;;;;;5017770;28;20949;-43
2022/01/09 07:12:57;;;;;;;4.90;4.40;;;3.10;99.90;;;;;;5033822;28;20271;-43
2022/01/09 07:15:24;;;;;;;5.73;4.87;;;3.10;99.90;;;;;;5042782;28;20405;-43
2022/01/09 07:17:50;;;;;;;5.80;5.23;;;3.10;99.90;;;;;;5033234;28;20219;-43
2022/01/09 07:20:17;;;;;;;5.50;4.93;;;3.00;99.90;;;;;;5019465;28;20216;-43
2022/01/09 07:22:44;;;;;;;5.77;5.17;;;3.00;99.90;;;;;;5031503;28;20223;-44
2022/01/09 07:25:11;;;;;;;6.10;5.17;;;3.00;99.90;;;;;;5025258;28;20216;-43
2022/01/09 07:27:38;;;;;;;5.83;4.83;;;3.10;99.90;;;;;;5014368;28;20212;-43
2022/01/09 07:30:08;;;;;;;6.13;4.80;;;3.10;99.90;;;;;;5047861;28;20204;-43
2022/01/09 07:32:36;;;;;;;7.30;5.77;;;3.10;99.90;;;;;;5046868;28;20713;-43
2022/01/09 07:35:03;;;;;;;6.63;5.60;;;3.10;99.90;;;;;;5021071;28;20223;-50
2022/01/09 07:37:31;;;;;;;6.00;5.33;;;3.10;99.90;;;;;;5005500;28;20221;-50
2022/01/09 07:39:58;;;;;;;6.03;5.10;;;3.10;99.90;;;;;;5031685;28;20216;-50
2022/01/09 07:42:25;;;;;;;7.03;5.77;;;3.20;99.90;;;;;;5009820;28;20232;-50
2022/01/09 07:44:51;;;;;;;7.23;5.80;;;3.20;99.90;;;;;;5051779;28;20209;-49
2022/01/09 07:47:20;;;;;;;7.00;5.90;;;3.20;99.90;;;;;;5048592;28;20202;-44
2022/01/09 07:49:46;;;;;;;8.23;6.23;;;3.20;99.90;;;;;;5008414;28;20216;-45
2022/01/09 07:52:14;;;;;;;8.27;6.37;;;3.30;99.90;;;;;;5032825;28;20710;-45
2022/01/09 07:54:40;;;;;;;8.90;6.20;;;3.30;99.90;;;;;;5032256;28;20219;-45
2022/01/09 07:57:07;;;;;;;7.53;5.83;;;3.30;99.90;;;;;;5012614;28;20241;-45
2022/01/09 07:59:34;;;;;;;8.20;6.00;;;3.30;99.90;;;;;;5020808;28;20217;-45
2022/01/09 08:02:01;;;;;;;8.23;6.73;;;3.30;99.90;;;;;;5038307;28;20617;-43
2022/01/09 08:04:29;;;;;;;8.23;6.43;;;3.30;99.90;;;;;;5038664;28;20211;-43
2022/01/09 08:06:56;;;;;;;10.33;6.73;;;3.40;99.90;;;;;;5016438;28;20655;-43
2022/01/09 08:09:23;;;;;;;9.27;6.23;;;3.40;99.90;;;;;;5003494;28;20220;-43
2022/01/09 08:11:50;;;;;;;9.07;6.13;;;3.50;99.90;;;;;;5029702;28;20713;-43
2022/01/09 08:14:16;;;;;;;8.07;6.10;;;3.40;99.90;;;;;;5012218;28;20215;-43
2022/01/09 08:16:43;;;;;;;7.10;5.53;;;3.50;99.90;;;;;;5041356;28;20270;-44
2022/01/09 08:19:10;;;;;;;7.57;4.83;;;3.60;99.90;;;;;;5021104;28;20205;-45
2022/01/09 08:21:38;;;;;;;5.43;4.10;;;3.70;99.90;;;;;;5004889;28;20755;-45
2022/01/09 08:24:06;;;;;;;7.83;3.93;;;3.70;99.90;;;;;;5022124;28;20215;-45
2022/01/09 08:26:32;;;;;;;7.73;3.77;;;3.80;99.90;;;;;;5005696;28;20208;-52
2022/01/09 08:29:00;;;;;;;8.87;3.50;;;3.90;99.90;;;;;;5016812;28;20212;-51
2022/01/09 08:31:27;;;;;;;5.40;2.83;;;4.00;99.90;;;;;;5029409;28;21044;-51
2022/01/09 08:33:54;;;;;;;8.43;2.73;;;4.10;99.90;;;;;;5032093;28;20707;-51
2022/01/09 08:36:21;;;;;;;6.67;2.30;;;4.20;99.90;;;;;;5033624;28;20213;-50
2022/01/09 08:38:49;;;;;;;9.87;2.40;;;4.40;99.90;;;;;;5013593;28;20217;-49
2022/01/09 08:41:16;;;;;;;7.03;2.23;;;4.60;99.90;;;;;;5009179;28;21345;-49
2022/01/09 08:43:43;;;;;;;7.43;2.40;;;4.70;99.90;;;;;;5016828;28;20711;-50
2022/01/09 08:46:10;;;;;;;7.77;1.83;;;4.80;99.90;;;;;;5021473;28;20310;-50
2022/01/09 08:48:38;;;;;;;6.60;1.40;;;4.90;99.90;;;;;;5023116;28;20217;-50
2022/01/09 08:51:06;;;;;;;6.20;1.93;;;4.90;99.90;;;;;;5034244;28;20205;-50
2022/01/09 08:53:35;;;;;;;8.73;2.00;;;4.90;99.90;;;;;;5025841;28;20332;-49
2022/01/09 08:56:04;;;;;;;4.87;1.50;;;5.00;99.90;;;;;;5016126;28;20216;-50
2022/01/09 08:58:32;;;;;;;5.83;1.83;;;5.00;99.90;;;;;;5027539;28;20577;-50
2022/01/09 09:01:02;;;;;;;6.50;1.40;;;5.00;99.90;;;;;;4992416;28;20219;-50
2022/01/09 09:03:31;;;;;;;6.57;1.63;;;5.10;99.90;;;;;;5046091;28;20232;-51
2022/01/09 09:06:01;;;;;;;8.73;1.80;;;5.10;99.90;;;;;;5029092;28;25448;-49
2022/01/09 09:08:34;;;;;;;5.70;1.50;;;5.10;99.90;;;;;;5034867;28;20295;-49
2022/01/09 09:11:02;;;;;;;6.23;1.70;;;5.10;99.90;;;;;;5032577;28;20887;-52
2022/01/09 09:13:29;;;;;;;7.93;1.80;;;5.00;99.90;;;;;;4997217;28;22700;-51
2022/01/09 09:15:57;;;;;;;7.70;1.43;;;5.10;99.90;;;;;;4977545;28;20239;-51
2022/01/09 09:18:24;;;;;;;6.27;1.90;;;5.10;99.90;;;;;;5014414;28;20434;-51
2022/01/09 09:20:51;;;;;;;7.67;1.33;;;5.10;99.90;;;;;;5012032;28;20414;-51
2022/01/09 09:23:18;;;;;;;6.80;1.67;;;5.10;99.90;;;;;;5012579;28;20212;-51
2022/01/09 09:25:46;;;;;;;7.27;2.17;;;5.20;99.90;;;;;;5005230;28;20307;-51
2022/01/09 09:28:14;;;;;;;14.23;2.50;;;5.20;99.90;;;;;;5007493;28;20428;-51
2022/01/09 09:30:42;;;;;;;10.30;2.70;;;5.20;99.90;;;;;;4991045;28;20718;-50
2022/01/09 09:33:09;;;;;;;10.83;2.17;;;5.20;99.90;;;;;;5002068;28;20831;-51
2022/01/09 09:35:36;;;;;;;15.90;2.73;;;5.20;99.90;;;;;;5036071;28;20211;-51
2022/01/09 09:38:04;;;;;;;16.10;2.73;;;5.30;99.90;;;;;;4992002;28;20689;-51
2022/01/09 09:40:31;;;;;;;14.90;3.03;;;5.40;99.90;;;;;;4988862;28;20225;-51
2022/01/09 09:42:58;;;;;;;17.83;2.90;;;5.30;99.90;;;;;;5009135;28;20722;-49
2022/01/09 09:45:28;;;;;;;11.80;2.57;;;5.40;99.90;;;;;;5002114;28;20209;-49
2022/01/09 09:47:55;;;;;;;22.20;2.80;;;5.40;99.90;;;;;;5008780;28;20200;-49
2022/01/09 09:50:22;;;;;;;19.90;3.23;;;5.40;99.90;;;;;;5017775;28;20215;-49
2022/01/09 09:52:50;;;;;;;11.13;3.07;;;5.30;99.90;;;;;;4999592;28;20232;-49
2022/01/09 09:55:19;;;;;;;17.47;2.67;;;5.40;99.90;;;;;;5006252;28;20272;-47
2022/01/09 09:57:47;;;;;;;8.50;2.30;;;5.40;99.90;;;;;;5012367;28;20236;-47
2022/01/09 10:00:17;;;;;;;13.27;2.30;;;5.40;99.90;;;;;;5002610;28;20811;-47
2022/01/09 10:02:48;;;;;;;8.70;2.47;;;5.40;99.90;;;;;;5007545;28;20227;-47
2022/01/09 10:05:17;;;;;;;15.57;2.70;;;5.40;99.90;;;;;;5018180;28;20212;-45
2022/01/09 10:07:44;;;;;;;17.93;3.60;;;5.50;99.90;;;;;;5022267;28;20263;-45
2022/01/09 10:10:14;;;;;;;12.90;2.50;;;5.40;99.90;;;;;;4993752;28;20213;-45
2022/01/09 10:12:43;;;;;;;12.03;2.13;;;5.40;99.90;;;;;;5008625;28;20728;-45
2022/01/09 10:15:12;;;;;;;9.00;2.20;;;5.50;99.90;;;;;;5016673;28;20200;-45
2022/01/09 10:17:43;;;;;;;6.87;1.80;;;5.50;99.90;;;;;;4998439;28;20757;-45
2022/01/09 10:20:13;;;;;;;12.43;2.70;;;5.50;99.90;;;;;;5001973;28;20200;-45
2022/01/09 10:22:44;;;;;;;12.63;1.73;;;5.50;99.90;;;;;;5023560;28;20247;-45
2022/01/09 10:25:30;;;;;;;5.73;1.90;;;5.50;99.90;;;;;;5004435;28;20896;-45
2022/01/09 10:28:03;;;;;;;11.03;1.70;;;5.50;99.90;;;;;;5009875;28;20201;-45
2022/01/09 10:30:33;;;;;;;13.53;2.53;;;5.50;99.90;;;;;;5013403;28;20223;-45
2022/01/09 10:33:02;;;;;;;10.63;2.00;;;5.50;99.90;;;;;;5002768;28;21249;-45
2022/01/09 10:35:32;;;;;;;10.80;2.33;;;5.50;99.90;;;;;;5017921;28;21028;-45
2022/01/09 10:38:08;;;;;;;11.43;3.20;;;5.50;99.90;;;;;;5009972;28;20998;-45
2022/01/09 10:40:38;;;;;;;8.53;1.93;;;5.60;99.90;;;;;;5010427;28;20300;-45
2022/01/09 10:43:07;;;;;;;10.77;2.30;;;5.60;99.90;;;;;;5007455;28;20244;-45
2022/01/09 10:45:38;;;;;;;9.63;2.10;;;5.50;99.90;;;;;;5019262;28;20219;-45
2022/01/09 10:48:08;;;;;;;13.93;2.50;;;5.50;99.90;;;;;;5005152;28;20666;-45
2022/01/09 10:50:39;;;;;;;10.53;2.03;;;5.60;99.90;;;;;;5013846;28;20614;-51
2022/01/09 10:53:18;;;;;;;14.33;2.50;;;5.60;99.90;;;;;;5022988;28;20842;-51
2022/01/09 10:55:46;;;;;;;15.37;2.83;;;5.60;99.90;;;;;;5006668;28;20367;-51
2022/01/09 10:58:20;;;;;;;5.80;1.57;;;5.60;99.90;;;;;;5014261;28;20726;-50
2022/01/09 11:00:48;;;;;;;10.27;2.10;;;5.60;99.90;;;;;;5020953;28;21837;-51
2022/01/09 11:03:15;;;;;;;7.63;1.57;;;5.70;99.90;;;;;;5003082;28;20209;-51
2022/01/09 11:05:45;;;;;;;18.23;2.87;;;5.60;99.90;;;;;;5014038;28;20220;-51
2022/01/09 11:08:14;;;;;;;10.63;2.13;;;5.60;99.90;;;;;;5034730;28;20205;-52
2022/01/09 11:10:41;;;;;;;7.13;1.73;;;5.60;99.90;;;;;;5007670;28;20219;-51
2022/01/09 11:13:14;;;;;;;10.93;2.00;;;5.60;99.90;;;;;;5001193;28;20237;-52
2022/01/09 11:16:32;;;;;;;10.87;2.03;;;5.60;99.90;;;;;;5015412;28;20217;-52
2022/01/09 11:18:31;;;;;;;8.70;2.07;;;5.70;99.90;;;;;;5028342;28;20252;-52
2022/01/09 11:21:00;;;;;;;13.83;2.20;;;5.70;99.90;;;;;;4993841;28;20217;-52
2022/01/09 11:23:38;;;;;;;11.50;2.60;;;5.70;99.90;;;;;;5014336;28;20211;-51
2022/01/09 11:26:11;;;;;;;10.87;2.20;;;5.60;99.90;;;;;;5018859;28;20205;-52
2022/01/09 11:28:38;;;;;;;11.17;2.67;;;5.70;99.90;;;;;;5007058;28;20216;-51
2022/01/09 11:31:14;;;;;;;16.23;2.53;;;5.70;99.90;;;;;;5021172;28;20217;-51
2022/01/09 11:33:51;;;;;;;12.63;2.60;;;5.70;99.90;;;;;;5032381;28;20458;-47
2022/01/09 11:36:29;;;;;;;14.37;2.37;;;5.70;99.90;;;;;;4995422;28;20216;-47
2022/01/09 11:39:11;;;;;;;11.17;2.47;;;5.80;99.90;;;;;;5028086;28;20225;-47
2022/01/09 11:41:39;;;;;;;10.80;2.07;;;5.80;99.90;;;;;;5018618;28;20304;-47
2022/01/09 11:44:08;;;;;;;11.93;2.47;;;5.70;99.90;;;;;;5000557;28;20217;-47
2022/01/09 11:46:57;;;;;;;17.90;2.77;;;5.80;99.90;;;;;;5022448;28;20625;-47
2022/01/09 11:49:24;;;;;;;13.33;2.47;;;5.80;99.90;;;;;;5019193;28;20641;-46
2022/01/09 11:51:55;;;;;;;5.83;2.33;;;5.80;99.90;;;;;;5002989;28;20238;-47
2022/01/09 11:54:23;;;;;;;13.17;2.87;;;5.80;99.90;;;;;;5029179;28;20231;-45
2022/01/09 11:57:06;;;;;;;10.57;2.73;;;5.80;99.90;;;;;;5035970;28;20201;-45
2022/01/09 11:59:45;;;;;;;14.70;3.03;;;5.80;99.90;;;;;;5011140;28;20470;-45
2022/01/09 12:02:32;;;;;;;14.10;2.47;;;5.90;99.90;;;;;;5013891;28;20230;-45
2022/01/09 12:05:01;;;;;;;17.20;3.17;;;5.90;99.90;;;;;;5021186;28;20212;-45
2022/01/09 12:08:05;;;;;;;16.70;3.33;;;5.90;99.90;;;;;;5015039;28;21541;-45
2022/01/09 12:10:41;;;;;;;13.67;2.23;;;5.90;99.90;;;;;;5007725;28;20215;-45
2022/01/09 12:13:50;;;;;;;14.47;2.90;;;5.90;99.90;;;;;;4994548;28;20917;-45
2022/01/09 12:16:46;;;;;;;17.33;2.90;;;5.90;99.90;;;;;;4996254;28;20216;-45
2022/01/09 12:19:33;;;;;;;14.17;2.57;;;5.90;99.90;;;;;;5026558;28;20224;-45
2022/01/09 12:22:00;;;;;;;7.97;2.03;;;5.80;99.90;;;;;;5014313;28;20232;-45
2022/01/09 12:24:41;;;;;;;11.80;2.57;;;5.90;99.90;;;;;;5018371;28;20208;-49
2022/01/09 12:27:44;;;;;;;12.20;2.70;;;5.90;99.90;;;;;;5027689;28;20647;-49
2022/01/09 12:30:36;;;;;;;7.40;1.77;;;5.90;99.90;;;;;;4994547;28;20208;-49
2022/01/09 12:33:05;;;;;;;8.23;1.97;;;5.90;99.90;;;;;;5022636;28;20225;-48
2022/01/09 12:35:33;;;;;;;11.23;1.97;;;5.90;99.90;;;;;;5009290;28;20212;-49
2022/01/09 12:38:00;;;;;;;6.77;1.53;;;5.90;99.90;;;;;;5021934;28;20217;-48
2022/01/09 12:40:30;;;;;;;8.80;2.00;;;5.90;99.90;;;;;;5010516;28;20734;-49
2022/01/09 12:43:00;;;;;;;9.50;2.03;;;5.90;99.90;;;;;;5032626;28;20737;-49
2022/01/09 12:45:29;;;;;;;9.50;3.37;;;5.90;99.90;;;;;;5026152;28;20205;-45
2022/01/09 12:47:58;;;;;;;18.97;3.20;;;5.90;99.90;;;;;;5008963;28;20217;-45
2022/01/09 12:50:30;;;;;;;14.10;2.87;;;5.90;99.90;;;;;;5007710;28;20674;-45
2022/01/09 12:53:12;;;;;;;9.10;2.33;;;5.90;99.90;;;;;;5041025;28;20239;-45
2022/01/09 12:55:54;;;;;;;6.03;1.23;;;5.90;99.90;;;;;;5028667;28;20913;-45
2022/01/09 12:58:24;;;;;;;4.97;1.20;;;5.80;99.90;;;;;;5023730;28;20247;-45
2022/01/09 13:00:51;;;;;;;3.50;1.27;;;5.80;99.90;;;;;;5019956;28;20209;-45
2022/01/09 13:03:19;;;;;;;4.33;1.13;;;5.70;99.90;;;;;;5006324;28;20416;-45
2022/01/09 13:05:54;;;;;;;6.73;1.50;;;5.60;99.90;;;;;;5008830;28;20345;-45